createdAt,value
2023-01-10T00:00:35.574Z,98351.94
2023-01-10T00:03:04.734Z,98350.28
2023-01-10T00:05:32.229Z,98363.28
2023-01-10T00:07:59.229Z,98362.66
2023-01-10T00:10:26.114Z,98370.31
2023-01-10T00:13:11.250Z,98367.59
2023-01-10T00:15:38.519Z,98362.00
2023-01-10T00:18:05.305Z,98367.91
2023-01-10T00:20:32.219Z,98363.28
2023-01-10T00:22:59.256Z,98366.47
2023-01-10T00:25:25.959Z,98370.03
2023-01-10T00:28:20.345Z,98372.66
2023-01-10T00:30:55.089Z,98372.34
2023-01-10T00:33:22.315Z,98376.31
2023-01-10T00:35:49.090Z,98379.28
2023-01-10T00:38:15.855Z,98392.28
2023-01-10T00:40:42.514Z,98400.03
2023-01-10T00:43:28.915Z,98413.06
2023-01-10T00:45:55.637Z,98404.25
2023-01-10T00:48:22.336Z,98403.59
2023-01-10T00:50:48.984Z,98413.72
2023-01-10T00:53:16.115Z,98416.63
2023-01-10T00:55:42.879Z,98428.06
2023-01-10T00:58:11.731Z,98415.91
2023-01-10T01:00:39.587Z,98416.13
2023-01-10T01:03:08.048Z,98430.81
2023-01-10T01:05:40.991Z,98431.13
2023-01-10T01:08:07.565Z,98422.72
2023-01-10T01:10:34.340Z,98438.56
2023-01-10T01:13:07.969Z,98433.44
2023-01-10T01:15:35.524Z,98435.94
2023-01-10T01:18:02.463Z,98443.81
2023-01-10T01:20:30.102Z,98451.81
2023-01-10T01:22:57.091Z,98451.16
2023-01-10T01:25:23.915Z,98461.56
2023-01-10T01:27:50.977Z,98462.41
2023-01-10T01:30:17.707Z,98466.63
2023-01-10T01:32:44.413Z,98470.78
2023-01-10T01:35:14.559Z,98483.72
2023-01-10T01:37:41.939Z,98488.22
2023-01-10T01:40:14.549Z,98488.13
2023-01-10T01:42:42.208Z,98493.25
2023-01-10T01:45:08.798Z,98502.72
2023-01-10T01:47:42.603Z,98503.47
2023-01-10T01:50:36.786Z,98507.78
2023-01-10T01:53:11.244Z,98521.19
2023-01-10T01:55:39.797Z,98527.94
2023-01-10T01:58:13.591Z,98521.72
2023-01-10T02:00:40.286Z,98524.34
2023-01-10T02:03:07.569Z,98522.69
2023-01-10T02:05:36.955Z,98530.44
2023-01-10T02:08:03.826Z,98529.59
2023-01-10T02:10:58.334Z,98534.84
2023-01-10T02:13:26.698Z,98538.13
2023-01-10T02:15:53.359Z,98539.91
2023-01-10T02:18:21.326Z,98546.44
2023-01-10T02:21:12.665Z,98542.13
2023-01-10T02:24:16.035Z,98550.00
2023-01-10T02:27:02.295Z,98563.97
2023-01-10T02:30:06.234Z,98568.38
2023-01-10T02:33:14.244Z,98567.00
2023-01-10T02:36:06.649Z,98575.81
2023-01-10T02:38:41.909Z,98585.47
2023-01-10T02:41:21.521Z,98581.72
2023-01-10T02:43:56.211Z,98588.84
2023-01-10T02:46:27.768Z,98598.41
2023-01-10T02:48:55.523Z,98599.34
2023-01-10T02:51:27.799Z,98615.00
2023-01-10T02:54:04.356Z,98617.22
2023-01-10T02:56:39.832Z,98629.53
2023-01-10T02:59:51.609Z,98637.19
2023-01-10T03:02:44.663Z,98634.66
2023-01-10T03:05:18.604Z,98639.25
2023-01-10T03:08:03.940Z,98647.16
2023-01-10T03:10:39.957Z,98650.63
2023-01-10T03:13:16.146Z,98661.75
2023-01-10T03:15:45.592Z,98655.66
2023-01-10T03:18:14.112Z,98656.50
2023-01-10T03:20:45.490Z,98669.09
2023-01-10T03:23:14.499Z,98677.50
2023-01-10T03:25:44.529Z,98680.88
2023-01-10T03:28:16.232Z,98678.34
2023-01-10T03:31:00.079Z,98688.84
2023-01-10T03:33:30.916Z,98697.66
2023-01-10T03:36:09.045Z,98693.81
2023-01-10T03:38:55.452Z,98704.59
2023-01-10T03:41:33.272Z,98707.34
2023-01-10T03:44:33.271Z,98719.91
2023-01-10T03:47:15.135Z,98730.22
2023-01-10T03:49:44.759Z,98736.41
2023-01-10T03:52:16.613Z,98736.09
2023-01-10T03:54:47.820Z,98742.88
2023-01-10T03:57:20.977Z,98749.50
2023-01-10T03:59:50.692Z,98750.63
2023-01-10T04:02:17.324Z,98751.59
2023-01-10T04:04:43.963Z,98761.13
2023-01-10T04:07:10.602Z,98770.16
2023-01-10T04:09:37.223Z,98773.31
2023-01-10T04:12:03.893Z,98781.03
2023-01-10T04:14:32.779Z,98788.22
2023-01-10T04:16:59.920Z,98779.06
2023-01-10T04:19:26.685Z,98782.44
2023-01-10T04:21:53.329Z,98793.03
2023-01-10T04:24:20.007Z,98793.41
2023-01-10T04:26:46.670Z,98801.97
2023-01-10T04:29:13.353Z,98809.19
2023-01-10T04:31:40.189Z,98810.13
2023-01-10T04:34:10.541Z,98813.03
2023-01-10T04:36:37.475Z,98822.56
2023-01-10T04:39:04.720Z,98825.50
2023-01-10T04:41:31.398Z,98833.75
2023-01-10T04:43:58.095Z,98837.59
2023-01-10T04:46:24.693Z,98839.56
2023-01-10T04:48:52.204Z,98847.22
2023-01-10T04:51:18.799Z,98854.94
2023-01-10T04:53:45.400Z,98863.53
2023-01-10T04:56:16.865Z,98862.88
2023-01-10T04:58:43.492Z,98866.16
2023-01-10T05:01:28.412Z,98879.28
2023-01-10T05:03:56.157Z,98880.97
2023-01-10T05:06:24.723Z,98875.56
2023-01-10T05:08:51.595Z,98881.53
2023-01-10T05:11:18.427Z,98880.13
2023-01-10T05:13:47.713Z,98888.84
2023-01-10T05:16:14.777Z,98886.41
2023-01-10T05:18:41.439Z,98892.59
2023-01-10T05:21:10.885Z,98892.47
2023-01-10T05:23:37.885Z,98893.91
2023-01-10T05:26:08.572Z,98893.22
2023-01-10T05:28:35.618Z,98902.69
2023-01-10T05:31:02.574Z,98892.16
2023-01-10T05:33:29.275Z,98891.22
2023-01-10T05:35:55.941Z,98896.00
2023-01-10T05:38:22.587Z,98900.59
2023-01-10T05:40:49.226Z,98908.03
2023-01-10T05:43:16.234Z,98907.53
2023-01-10T05:45:42.906Z,98916.19
2023-01-10T05:48:09.569Z,98925.97
2023-01-10T05:50:36.201Z,98927.69
2023-01-10T05:53:05.954Z,98932.34
2023-01-10T05:55:33.763Z,98932.25
2023-01-10T05:58:00.808Z,98938.50
2023-01-10T06:00:28.003Z,98935.81
2023-01-10T06:02:55.543Z,98947.16
2023-01-10T06:05:23.490Z,98952.38
2023-01-10T06:07:50.571Z,98967.19
2023-01-10T06:10:17.489Z,98966.06
2023-01-10T06:12:44.213Z,98970.47
2023-01-10T06:15:11.371Z,98982.94
2023-01-10T06:17:37.989Z,98990.09
2023-01-10T06:20:05.118Z,98988.31
2023-01-10T06:22:31.826Z,98993.06
2023-01-10T06:24:58.521Z,98999.22
2023-01-10T06:27:25.161Z,99007.09
2023-01-10T06:29:51.808Z,99017.06
2023-01-10T06:32:18.535Z,99025.03
2023-01-10T06:34:45.182Z,99026.63
2023-01-10T06:37:11.827Z,99022.84
2023-01-10T06:39:39.700Z,99029.91
2023-01-10T06:42:06.376Z,99027.31
2023-01-10T06:44:33.061Z,99028.47
2023-01-10T06:46:59.651Z,99041.84
2023-01-10T06:49:26.275Z,99031.34
2023-01-10T06:51:52.875Z,99039.16
2023-01-10T06:54:19.544Z,99047.69
2023-01-10T06:56:48.856Z,99060.78
2023-01-10T06:59:15.825Z,99057.38
2023-01-10T07:01:42.689Z,99074.66
2023-01-10T07:04:09.517Z,99065.09
2023-01-10T07:06:39.904Z,99069.50
2023-01-10T07:09:06.760Z,99079.66
2023-01-10T07:11:34.410Z,99076.50
2023-01-10T07:14:01.718Z,99079.84
2023-01-10T07:16:29.010Z,99091.94
2023-01-10T07:18:55.652Z,99097.00
2023-01-10T07:21:22.317Z,99104.72
2023-01-10T07:23:52.875Z,99109.84
2023-01-10T07:26:20.169Z,99116.66
2023-01-10T07:28:51.234Z,99117.41
2023-01-10T07:31:23.790Z,99131.34
2023-01-10T07:33:53.601Z,99128.72
2023-01-10T07:36:20.930Z,99144.38
2023-01-10T07:38:47.569Z,99146.00
2023-01-10T07:41:14.217Z,99148.44
2023-01-10T07:43:40.879Z,99146.53
2023-01-10T07:46:09.646Z,99144.91
2023-01-10T07:48:36.953Z,99149.16
2023-01-10T07:51:04.913Z,99149.91
2023-01-10T07:53:32.123Z,99148.19
2023-01-10T07:56:00.467Z,99135.09
2023-01-10T07:58:27.809Z,99145.25
2023-01-10T08:01:02.547Z,99157.63
2023-01-10T08:03:33.386Z,99160.06
2023-01-10T08:06:01.433Z,99174.63
2023-01-10T08:08:28.578Z,99169.81
2023-01-10T08:10:55.681Z,99170.72
2023-01-10T08:13:23.803Z,99163.56
2023-01-10T08:15:51.970Z,99174.06
2023-01-10T08:18:20.830Z,99178.97
2023-01-10T08:20:52.878Z,99174.56
2023-01-10T08:23:20.588Z,99169.91
2023-01-10T08:25:47.955Z,99174.81
2023-01-10T08:28:14.856Z,99171.16
2023-01-10T08:30:41.699Z,99170.06
2023-01-10T08:33:09.497Z,99185.63
2023-01-10T08:35:43.723Z,99194.09
2023-01-10T08:38:11.102Z,99196.91
2023-01-10T08:40:38.007Z,99208.06
2023-01-10T08:43:07.809Z,99222.16
2023-01-10T08:45:34.924Z,99221.31
2023-01-10T08:48:02.031Z,99220.28
2023-01-10T08:50:28.841Z,99231.47
2023-01-10T08:52:58.558Z,99240.09
2023-01-10T08:55:25.486Z,99237.66
2023-01-10T08:57:52.150Z,99232.13
2023-01-10T09:00:19.599Z,99229.25
2023-01-10T09:02:46.347Z,99228.06
2023-01-10T09:05:26.326Z,99244.66
2023-01-10T09:07:58.154Z,99249.91
2023-01-10T09:10:24.795Z,99258.56
2023-01-10T09:12:58.676Z,99244.66
2023-01-10T09:15:32.393Z,99232.50
2023-01-10T09:18:01.795Z,99220.59
2023-01-10T09:20:28.830Z,99222.31
2023-01-10T09:22:56.852Z,99220.34
2023-01-10T09:25:25.154Z,99227.88
2023-01-10T09:27:59.687Z,99225.16
2023-01-10T09:30:27.672Z,99222.63
2023-01-10T09:32:55.183Z,99231.78
2023-01-10T09:35:22.557Z,99230.06
2023-01-10T09:37:49.189Z,99244.84
2023-01-10T09:40:26.637Z,99245.75
2023-01-10T09:43:16.981Z,99262.94
2023-01-10T09:46:00.868Z,99257.63
2023-01-10T09:48:52.458Z,99268.41
2023-01-10T09:51:37.776Z,99270.75
2023-01-10T09:54:18.904Z,99277.53
2023-01-10T09:56:47.788Z,99286.00
2023-01-10T09:59:20.335Z,99287.19
2023-01-10T10:01:48.967Z,99284.47
2023-01-10T10:04:23.964Z,99282.97
2023-01-10T10:06:51.897Z,99290.06
2023-01-10T10:09:28.879Z,99289.81
2023-01-10T10:12:10.646Z,99293.97
2023-01-10T10:14:49.217Z,99289.91
2023-01-10T10:17:29.415Z,99297.81
2023-01-10T10:20:03.006Z,99291.59
2023-01-10T10:22:47.544Z,99286.53
2023-01-10T10:25:51.269Z,99293.38
2023-01-10T10:28:59.983Z,99289.06
2023-01-10T10:31:55.107Z,99286.84
2023-01-10T10:34:36.753Z,99279.38
2023-01-10T10:37:22.284Z,99288.38
2023-01-10T10:39:54.317Z,99289.03
2023-01-10T10:42:21.409Z,99293.53
2023-01-10T10:45:15.447Z,99290.81
2023-01-10T10:47:50.059Z,99288.69
2023-01-10T10:50:19.704Z,99281.50
2023-01-10T10:52:47.240Z,99285.91
2023-01-10T10:55:19.318Z,99281.56
2023-01-10T10:57:59.536Z,99280.28
2023-01-10T11:00:28.155Z,99273.06
2023-01-10T11:02:58.068Z,99271.28
2023-01-10T11:05:35.678Z,99280.16
2023-01-10T11:08:24.543Z,99281.66
2023-01-10T11:10:56.204Z,99279.16
2023-01-10T11:13:35.065Z,99283.94
2023-01-10T11:16:04.607Z,99283.19
2023-01-10T11:18:32.280Z,99286.91
2023-01-10T11:21:19.617Z,99286.34
2023-01-10T11:23:53.891Z,99294.22
2023-01-10T11:26:30.907Z,99291.44
2023-01-10T11:29:08.592Z,99303.97
2023-01-10T11:31:37.100Z,99298.16
2023-01-10T11:34:08.544Z,99299.31
2023-01-10T11:37:05.909Z,99294.06
2023-01-10T11:39:33.316Z,99294.72
2023-01-10T11:42:29.811Z,99302.44
2023-01-10T11:45:19.754Z,99301.97
2023-01-10T11:47:50.819Z,99294.22
2023-01-10T11:50:27.608Z,99292.38
2023-01-10T11:52:55.530Z,99297.44
2023-01-10T11:55:26.073Z,99298.38
2023-01-10T11:58:15.106Z,99294.06
2023-01-10T12:00:47.693Z,99295.75
2023-01-10T12:03:28.230Z,99292.00
2023-01-10T12:05:59.765Z,99288.34
2023-01-10T12:08:35.080Z,99294.66
2023-01-10T12:11:05.354Z,99288.09
2023-01-10T12:13:50.797Z,99283.84
2023-01-10T12:16:30.761Z,99286.97
2023-01-10T12:19:03.756Z,99280.84
2023-01-10T12:21:38.365Z,99289.06
2023-01-10T12:24:14.218Z,99298.00
2023-01-10T12:26:42.183Z,99307.19
2023-01-10T12:29:15.924Z,99297.91
2023-01-10T12:31:42.666Z,99298.53
2023-01-10T12:34:20.021Z,99296.19
2023-01-10T12:37:11.472Z,99302.22
2023-01-10T12:39:43.720Z,99293.94
2023-01-10T12:42:28.708Z,99301.63
2023-01-10T12:45:13.136Z,99295.78
2023-01-10T12:48:02.990Z,99293.72
2023-01-10T12:50:35.697Z,99296.69
2023-01-10T12:53:33.208Z,99305.03
2023-01-10T12:56:06.457Z,99306.59
2023-01-10T12:59:17.089Z,99301.06
2023-01-10T13:01:49.564Z,99306.94
2023-01-10T13:04:22.277Z,99310.69
2023-01-10T13:06:49.428Z,99313.97
2023-01-10T13:09:28.950Z,99308.81
2023-01-10T13:12:20.421Z,99307.59
2023-01-10T13:15:07.426Z,99315.75
2023-01-10T13:17:34.083Z,99313.13
2023-01-10T13:20:19.896Z,99310.59
2023-01-10T13:22:52.593Z,99309.25
2023-01-10T13:25:23.275Z,99313.56
2023-01-10T13:28:03.755Z,99317.25
2023-01-10T13:30:37.938Z,99316.91
2023-01-10T13:33:43.706Z,99313.00
2023-01-10T13:36:17.331Z,99309.94
2023-01-10T13:38:54.179Z,99312.06
2023-01-10T13:41:39.696Z,99313.56
2023-01-10T13:44:09.256Z,99312.84
2023-01-10T13:46:39.576Z,99316.13
2023-01-10T13:49:12.165Z,99305.59
2023-01-10T13:51:59.539Z,99305.25
2023-01-10T13:54:27.747Z,99297.44
2023-01-10T13:56:54.403Z,99300.06
2023-01-10T13:59:42.682Z,99301.00
2023-01-10T14:02:29.867Z,99309.50
2023-01-10T14:05:07.785Z,99313.06
2023-01-10T14:07:49.213Z,99305.69
2023-01-10T14:10:33.738Z,99310.69
2023-01-10T14:13:09.321Z,99315.09
2023-01-10T14:15:45.830Z,99318.84
2023-01-10T14:18:34.437Z,99312.56
2023-01-10T14:21:03.745Z,99312.56
2023-01-10T14:23:43.691Z,99310.38
2023-01-10T14:26:25.415Z,99304.94
2023-01-10T14:28:52.432Z,99310.38
2023-01-10T14:31:22.300Z,99302.06
2023-01-10T14:33:49.403Z,99311.22
2023-01-10T14:36:22.444Z,99316.47
2023-01-10T14:38:51.221Z,99306.66
2023-01-10T14:41:24.982Z,99314.28
2023-01-10T14:44:01.949Z,99307.50
2023-01-10T14:46:50.605Z,99309.09
2023-01-10T14:49:48.576Z,99305.97
2023-01-10T14:52:24.985Z,99304.47
2023-01-10T14:55:22.737Z,99301.56
2023-01-10T14:58:05.645Z,99288.09
2023-01-10T15:00:36.776Z,99291.91
2023-01-10T15:03:04.280Z,99284.72
2023-01-10T15:05:36.572Z,99275.81
2023-01-10T15:08:25.971Z,99264.47
2023-01-10T15:10:54.878Z,99264.53
2023-01-10T15:13:28.211Z,99265.38
2023-01-10T15:15:55.641Z,99267.16
2023-01-10T15:18:43.428Z,99266.31
2023-01-10T15:21:13.391Z,99264.03
2023-01-10T15:23:42.576Z,99261.75
2023-01-10T15:26:16.298Z,99262.59
2023-01-10T15:28:49.228Z,99260.66
2023-01-10T15:31:19.831Z,99260.66
2023-01-10T15:33:56.467Z,99262.53
2023-01-10T15:36:27.635Z,99261.59
2023-01-10T15:38:54.890Z,99267.00
2023-01-10T15:41:23.621Z,99263.81
2023-01-10T15:43:52.118Z,99267.56
2023-01-10T15:46:23.848Z,99263.03
2023-01-10T15:49:02.715Z,99259.75
2023-01-10T15:51:30.558Z,99245.00
2023-01-10T15:54:04.140Z,99252.13
2023-01-10T15:57:04.394Z,99250.59
2023-01-10T15:59:39.387Z,99255.19
2023-01-10T16:02:12.891Z,99256.38
2023-01-10T16:04:40.599Z,99249.06
2023-01-10T16:07:32.927Z,99254.66
2023-01-10T16:10:07.974Z,99252.97
2023-01-10T16:12:59.060Z,99254.81
2023-01-10T16:15:31.451Z,99255.78
2023-01-10T16:17:58.443Z,99253.06
2023-01-10T16:20:47.366Z,99250.63
2023-01-10T16:23:26.285Z,99238.41
2023-01-10T16:25:56.444Z,99235.94
2023-01-10T16:28:24.081Z,99240.38
2023-01-10T16:30:50.732Z,99236.19
2023-01-10T16:33:22.829Z,99242.50
2023-01-10T16:35:52.346Z,99230.09
2023-01-10T16:38:19.923Z,99225.88
2023-01-10T16:40:52.666Z,99226.72
2023-01-10T16:43:19.883Z,99217.38
2023-01-10T16:45:49.971Z,99211.31
2023-01-10T16:48:18.383Z,99214.03
2023-01-10T16:50:47.158Z,99211.47
2023-01-10T16:53:16.778Z,99221.47
2023-01-10T16:55:53.449Z,99216.06
2023-01-10T16:58:21.259Z,99216.06
2023-01-10T17:00:51.250Z,99219.63
2023-01-10T17:03:23.827Z,99221.31
2023-01-10T17:05:51.092Z,99206.50
2023-01-10T17:08:22.808Z,99213.78
2023-01-10T17:10:53.703Z,99211.31
2023-01-10T17:13:27.211Z,99208.41
2023-01-10T17:15:53.825Z,99200.38
2023-01-10T17:18:20.465Z,99202.31
2023-01-10T17:20:47.135Z,99208.53
2023-01-10T17:23:15.727Z,99195.41
2023-01-10T17:25:42.425Z,99193.84
2023-01-10T17:28:11.736Z,99196.25
2023-01-10T17:30:42.669Z,99193.94
2023-01-10T17:33:12.211Z,99195.81
2023-01-10T17:35:40.363Z,99184.63
2023-01-10T17:38:08.066Z,99195.88
2023-01-10T17:40:34.653Z,99182.63
2023-01-10T17:43:01.286Z,99181.84
2023-01-10T17:45:27.870Z,99181.06
2023-01-10T17:47:54.492Z,99186.31
2023-01-10T17:50:21.121Z,99186.41
2023-01-10T17:52:47.697Z,99191.50
2023-01-10T17:55:14.344Z,99187.25
2023-01-10T17:57:41.095Z,99184.63
2023-01-10T18:00:08.691Z,99177.72
2023-01-10T18:02:36.967Z,99175.81
2023-01-10T18:05:03.996Z,99164.41
2023-01-10T18:07:30.650Z,99163.47
2023-01-10T18:09:58.064Z,99163.28
2023-01-10T18:12:24.819Z,99160.84
2023-01-10T18:14:51.513Z,99167.28
2023-01-10T18:17:18.348Z,99162.19
2023-01-10T18:19:45.521Z,99162.38
2023-01-10T18:22:31.423Z,99163.03
2023-01-10T18:24:59.082Z,99160.06
2023-01-10T18:27:27.185Z,99156.72
2023-01-10T18:29:54.053Z,99159.50
2023-01-10T18:32:22.228Z,99159.00
2023-01-10T18:34:49.185Z,99153.63
2023-01-10T18:37:17.420Z,99148.50
2023-01-10T18:39:44.081Z,99152.03
2023-01-10T18:42:11.527Z,99156.59
2023-01-10T18:44:38.667Z,99150.50
2023-01-10T18:47:06.780Z,99146.03
2023-01-10T18:49:33.775Z,99143.41
2023-01-10T18:52:00.702Z,99145.09
2023-01-10T18:54:28.210Z,99144.25
2023-01-10T18:56:58.017Z,99139.66
2023-01-10T18:59:24.620Z,99138.00
2023-01-10T19:01:51.307Z,99138.00
2023-01-10T19:04:18.789Z,99122.25
2023-01-10T19:06:46.091Z,99117.00
2023-01-10T19:09:12.689Z,99110.63
2023-01-10T19:11:39.326Z,99113.25
2023-01-10T19:14:06.004Z,99106.03
2023-01-10T19:16:32.923Z,99102.91
2023-01-10T19:19:05.683Z,99106.16
2023-01-10T19:21:34.302Z,99103.63
2023-01-10T19:24:04.383Z,99097.66
2023-01-10T19:26:31.455Z,99105.38
2023-01-10T19:28:58.147Z,99105.72
2023-01-10T19:31:27.431Z,99097.78
2023-01-10T19:33:55.123Z,99088.28
2023-01-10T19:36:24.062Z,99100.41
2023-01-10T19:38:57.958Z,99093.28
2023-01-10T19:41:26.323Z,99090.56
2023-01-10T19:43:57.698Z,99097.66
2023-01-10T19:46:24.494Z,99086.50
2023-01-10T19:48:51.104Z,99093.47
2023-01-10T19:51:17.747Z,99096.75
2023-01-10T19:53:46.459Z,99088.88
2023-01-10T19:56:19.665Z,99090.00
2023-01-10T19:58:46.304Z,99089.22
2023-01-10T20:01:16.395Z,99090.66
2023-01-10T20:03:46.543Z,99097.44
2023-01-10T20:06:17.020Z,99107.00
2023-01-10T20:08:45.339Z,99104.63
2023-01-10T20:11:12.211Z,99100.91
2023-01-10T20:13:44.904Z,99097.59
2023-01-10T20:16:17.397Z,99094.97
2023-01-10T20:18:45.156Z,99091.69
2023-01-10T20:21:13.807Z,99087.38
2023-01-10T20:23:41.533Z,99092.97
2023-01-10T20:26:11.488Z,99093.22
2023-01-10T20:28:39.716Z,99081.88
2023-01-10T20:31:08.734Z,99073.34
2023-01-10T20:33:36.761Z,99078.94
2023-01-10T20:36:09.319Z,99078.00
2023-01-10T20:38:36.745Z,99076.38
2023-01-10T20:41:10.689Z,99058.69
2023-01-10T20:43:38.429Z,99053.72
2023-01-10T20:46:13.382Z,99044.59
2023-01-10T20:48:41.723Z,99041.69
2023-01-10T20:51:16.108Z,99036.94
2023-01-10T20:53:44.051Z,99041.53
2023-01-10T20:56:13.855Z,99033.59
2023-01-10T20:58:40.925Z,99026.47
2023-01-10T21:01:08.560Z,99018.94
2023-01-10T21:03:35.416Z,99016.31
2023-01-10T21:06:02.518Z,99011.25
2023-01-10T21:08:29.967Z,99016.50
2023-01-10T21:10:57.820Z,99013.63
2023-01-10T21:13:24.704Z,99003.28
2023-01-10T21:15:57.735Z,99004.41
2023-01-10T21:18:35.726Z,98997.47
2023-01-10T21:21:02.724Z,99001.44
2023-01-10T21:23:29.693Z,99001.44
2023-01-10T21:26:03.284Z,98983.16
2023-01-10T21:28:33.637Z,98981.16
2023-01-10T21:31:00.759Z,98973.44
2023-01-10T21:33:27.402Z,98963.72
2023-01-10T21:35:56.991Z,98966.84
2023-01-10T21:38:28.465Z,98941.56
2023-01-10T21:41:05.503Z,98949.34
2023-01-10T21:43:35.743Z,98950.19
2023-01-10T21:46:02.504Z,98950.94
2023-01-10T21:48:29.281Z,98939.69
2023-01-10T21:50:57.793Z,98935.28
2023-01-10T21:53:28.664Z,98938.66
2023-01-10T21:56:00.033Z,98933.06
2023-01-10T21:58:27.289Z,98938.50
2023-01-10T22:00:56.319Z,98941.00
2023-01-10T22:03:23.097Z,98941.97
2023-01-10T22:05:49.804Z,98928.00
2023-01-10T22:08:16.445Z,98931.63
2023-01-10T22:10:43.085Z,98926.97
2023-01-10T22:13:09.779Z,98940.84
2023-01-10T22:15:37.893Z,98926.97
2023-01-10T22:18:04.563Z,98926.81
2023-01-10T22:20:31.206Z,98927.66
2023-01-10T22:22:58.233Z,98909.88
2023-01-10T22:25:24.832Z,98916.13
2023-01-10T22:27:53.448Z,98915.28
2023-01-10T22:30:20.269Z,98913.50
2023-01-10T22:32:46.979Z,98912.41
2023-01-10T22:35:14.729Z,98916.13
2023-01-10T22:37:41.627Z,98917.16
2023-01-10T22:40:09.022Z,98903.78
2023-01-10T22:42:35.610Z,98912.97
2023-01-10T22:45:02.218Z,98916.13
2023-01-10T22:47:28.868Z,98897.09
2023-01-10T22:49:55.576Z,98892.97
2023-01-10T22:52:22.171Z,98892.78
2023-01-10T22:54:48.762Z,98891.94
2023-01-10T22:57:15.445Z,98880.47
2023-01-10T22:59:44.054Z,98884.88
2023-01-10T23:02:10.728Z,98880.13
2023-01-10T23:04:37.330Z,98867.56
2023-01-10T23:07:04.007Z,98862.25
2023-01-10T23:09:32.849Z,98857.44
2023-01-10T23:11:59.623Z,98864.59
2023-01-10T23:14:26.341Z,98855.59
2023-01-10T23:16:53.015Z,98851.09
2023-01-10T23:19:19.699Z,98849.22
2023-01-10T23:21:46.531Z,98846.22
2023-01-10T23:24:15.039Z,98851.31
2023-01-10T23:26:41.649Z,98855.44
2023-01-10T23:29:08.442Z,98839.50
2023-01-10T23:31:35.125Z,98840.81
2023-01-10T23:34:01.861Z,98832.38
2023-01-10T23:36:28.491Z,98841.66
2023-01-10T23:38:55.221Z,98838.00
2023-01-10T23:41:22.139Z,98839.53
2023-01-10T23:43:50.516Z,98830.34
2023-01-10T23:46:17.574Z,98822.47
2023-01-10T23:48:46.492Z,98828.09
2023-01-10T23:51:13.551Z,98820.41
2023-01-10T23:53:40.890Z,98810.69
2023-01-10T23:56:13.686Z,98814.03
2023-01-10T23:58:41.004Z,98802.53
